Time;durP1;ratioP1;P1;durP2;ratioP2;P2;SDS_P1;SDS_P2;PMS_P1;PMS_P2;Temp;Humidity;BMP_temperature;BMP_pressure;BME280_temperature;BME280_humidity;BME280_pressure;Samples;Min_cycle;Max_cycle;Signal;HPM_P1;HPM_P2
2020/12/24 00:00:44;;;;;;;5.15;4.60;;;12.00;82.60;;;;;;4980051;28;20038;-69
2020/12/24 00:03:09;;;;;;;4.60;4.13;;;12.00;82.60;;;;;;4978236;28;20047;-68
2020/12/24 00:05:35;;;;;;;5.40;4.07;;;12.00;82.60;;;;;;4978959;28;20664;-69
2020/12/24 00:08:01;;;;;;;5.30;3.95;;;12.00;82.60;;;;;;4979532;28;20471;-69
2020/12/24 00:10:27;;;;;;;4.60;3.78;;;12.00;82.40;;;;;;4978746;28;20022;-69
2020/12/24 00:12:53;;;;;;;4.93;3.67;;;12.00;82.40;;;;;;4979797;28;20026;-68
2020/12/24 00:15:19;;;;;;;3.83;3.42;;;12.00;82.20;;;;;;4980286;28;20054;-69
2020/12/24 00:17:44;;;;;;;3.40;3.10;;;12.00;82.20;;;;;;4979067;28;20522;-69
2020/12/24 00:20:11;;;;;;;3.80;3.08;;;12.00;82.30;;;;;;4979692;28;20042;-68
2020/12/24 00:22:36;;;;;;;3.22;2.80;;;12.00;82.30;;;;;;4979756;28;20482;-68
2020/12/24 00:25:02;;;;;;;2.05;1.77;;;12.00;82.30;;;;;;4983816;28;20981;-69
2020/12/24 00:27:28;;;;;;;1.55;1.45;;;12.00;82.30;;;;;;4978528;28;20046;-69
2020/12/24 00:29:54;;;;;;;0.85;0.80;;;12.00;82.20;;;;;;4980155;28;20379;-68
2020/12/24 00:32:19;;;;;;;0.77;0.50;;;11.90;82.10;;;;;;4978547;28;20089;-69
2020/12/24 00:34:45;;;;;;;0.45;0.40;;;11.90;82.00;;;;;;4980350;28;20050;-68
2020/12/24 00:37:11;;;;;;;0.30;0.30;;;11.90;82.00;;;;;;4979442;28;20035;-69
2020/12/24 00:39:37;;;;;;;0.60;0.20;;;11.90;82.00;;;;;;4978186;28;20049;-69
2020/12/24 00:42:03;;;;;;;0.20;0.20;;;11.80;81.90;;;;;;4979533;28;20031;-69
2020/12/24 00:44:29;;;;;;;0.85;0.22;;;11.80;81.80;;;;;;4979238;28;20121;-69
2020/12/24 00:46:54;;;;;;;0.20;0.20;;;11.80;81.80;;;;;;4978424;28;20533;-67
2020/12/24 00:49:20;;;;;;;0.20;0.20;;;11.70;81.50;;;;;;4994966;28;20058;-68
2020/12/24 00:51:46;;;;;;;0.10;0.10;;;11.80;81.40;;;;;;4979003;28;20038;-69
2020/12/24 00:54:12;;;;;;;0.20;0.20;;;11.70;81.20;;;;;;4979749;28;20042;-69
2020/12/24 00:56:37;;;;;;;0.20;0.10;;;11.70;81.00;;;;;;4978580;28;20133;-69
2020/12/24 00:59:03;;;;;;;0.10;0.10;;;11.70;81.00;;;;;;4979135;28;20122;-69
2020/12/24 01:01:29;;;;;;;0.35;0.17;;;11.70;81.00;;;;;;4982051;28;20050;-68
2020/12/24 01:03:54;;;;;;;0.20;0.17;;;11.70;81.10;;;;;;4983695;28;20035;-69
2020/12/24 01:06:20;;;;;;;0.30;0.13;;;11.70;81.20;;;;;;4982721;28;20065;-69
2020/12/24 01:08:46;;;;;;;0.10;0.10;;;11.60;81.20;;;;;;4988392;28;20051;-69
2020/12/24 01:11:11;;;;;;;0.95;0.20;;;11.60;81.30;;;;;;4981082;28;20030;-69
2020/12/24 01:13:37;;;;;;;1.85;0.20;;;11.60;82.30;;;;;;4983217;28;20026;-68
2020/12/24 01:16:03;;;;;;;0.30;0.30;;;11.60;81.60;;;;;;4998513;28;20521;-69
2020/12/24 01:18:29;;;;;;;0.57;0.40;;;11.60;81.90;;;;;;4982698;28;20124;-69
2020/12/24 01:20:54;;;;;;;0.40;0.40;;;11.60;82.00;;;;;;4982009;28;20035;-68
2020/12/24 01:23:20;;;;;;;0.52;0.52;;;11.60;82.20;;;;;;4983240;28;20035;-68
2020/12/24 01:25:46;;;;;;;1.70;0.80;;;11.60;82.20;;;;;;4981154;28;20069;-68
2020/12/24 01:28:11;;;;;;;1.30;1.20;;;11.60;82.40;;;;;;4979461;28;20038;-67
2020/12/24 01:30:37;;;;;;;1.00;0.90;;;11.60;82.60;;;;;;4982266;28;20067;-67
2020/12/24 01:33:02;;;;;;;1.00;0.70;;;11.50;82.60;;;;;;4981101;28;20038;-68
2020/12/24 01:35:28;;;;;;;0.70;0.70;;;11.50;82.70;;;;;;4982352;28;20031;-68
2020/12/24 01:37:54;;;;;;;0.50;0.50;;;11.50;82.70;;;;;;4983939;28;20034;-68
2020/12/24 01:40:20;;;;;;;0.88;0.45;;;11.50;82.90;;;;;;4984915;28;20798;-68
2020/12/24 01:42:48;;;;;;;1.00;0.50;;;11.50;82.90;;;;;;4981010;28;20042;-68
2020/12/24 01:45:14;;;;;;;1.27;1.17;;;11.50;83.00;;;;;;4981883;28;20051;-66
2020/12/24 01:47:39;;;;;;;0.90;0.90;;;11.50;82.90;;;;;;4982836;28;20039;-69
2020/12/24 01:50:05;;;;;;;1.10;1.00;;;11.50;83.20;;;;;;4996887;28;20477;-68
2020/12/24 01:52:36;;;;;;;1.15;1.05;;;11.40;83.10;;;;;;4980881;28;20078;-68
2020/12/24 01:55:09;;;;;;;1.05;1.00;;;11.40;83.40;;;;;;4981393;28;20601;-69
2020/12/24 01:57:36;;;;;;;1.10;1.00;;;11.40;83.40;;;;;;4982323;28;20121;-68
2020/12/24 02:00:05;;;;;;;0.90;0.90;;;11.40;83.30;;;;;;4980556;28;20034;-68
2020/12/24 02:02:31;;;;;;;0.88;0.80;;;11.40;83.50;;;;;;4980258;28;20035;-68
2020/12/24 02:04:56;;;;;;;0.60;0.60;;;11.30;83.40;;;;;;4981812;28;20514;-67
2020/12/24 02:07:22;;;;;;;0.70;0.70;;;11.30;83.40;;;;;;4994751;28;20038;-68
2020/12/24 02:09:49;;;;;;;0.40;0.40;;;11.30;83.60;;;;;;4982062;28;20029;-67
2020/12/24 02:12:15;;;;;;;0.40;0.40;;;11.30;83.40;;;;;;4980755;28;20118;-69
2020/12/24 02:14:41;;;;;;;0.60;0.40;;;11.30;83.50;;;;;;4981305;28;21467;-69
2020/12/24 02:17:07;;;;;;;0.50;0.40;;;11.30;83.50;;;;;;4980376;28;20030;-67
2020/12/24 02:19:33;;;;;;;0.30;0.30;;;11.20;83.40;;;;;;4981419;28;20568;-69
2020/12/24 02:21:58;;;;;;;0.25;0.25;;;11.20;83.40;;;;;;4982764;28;20062;-68
2020/12/24 02:24:24;;;;;;;0.43;0.28;;;11.20;83.40;;;;;;4980681;28;20073;-68
2020/12/24 02:26:49;;;;;;;0.20;0.20;;;11.20;83.40;;;;;;4979311;28;20038;-66
2020/12/24 02:29:15;;;;;;;1.35;0.20;;;11.20;83.40;;;;;;4980944;28;20113;-68
2020/12/24 02:31:41;;;;;;;0.85;0.17;;;11.10;83.40;;;;;;4996576;28;20038;-66
2020/12/24 02:34:06;;;;;;;0.20;0.20;;;11.10;83.30;;;;;;4981087;28;20046;-69
2020/12/24 02:36:33;;;;;;;0.20;0.20;;;11.10;83.30;;;;;;4981100;28;20118;-67
2020/12/24 02:38:59;;;;;;;2.15;0.20;;;11.10;83.10;;;;;;4982107;28;20043;-69
2020/12/24 02:41:25;;;;;;;0.55;0.20;;;11.10;83.20;;;;;;4981033;28;20030;-68
2020/12/24 02:43:50;;;;;;;0.47;0.30;;;11.10;83.20;;;;;;4981224;28;20042;-68
2020/12/24 02:46:17;;;;;;;0.65;0.20;;;11.00;83.10;;;;;;4981024;28;20034;-68
2020/12/24 02:48:43;;;;;;;0.30;0.10;;;11.00;83.40;;;;;;4980691;28;20031;-69
2020/12/24 02:51:09;;;;;;;0.30;0.20;;;10.90;82.90;;;;;;4981667;28;20088;-69
2020/12/24 02:53:35;;;;;;;0.20;0.20;;;10.90;82.90;;;;;;4979161;28;20045;-69
2020/12/24 02:56:00;;;;;;;0.35;0.20;;;10.80;82.90;;;;;;4981799;28;20534;-69
2020/12/24 02:58:26;;;;;;;0.10;0.10;;;10.80;82.90;;;;;;4980104;28;20047;-69
2020/12/24 03:00:52;;;;;;;0.20;0.10;;;10.80;83.00;;;;;;4980646;28;20041;-69
2020/12/24 03:03:17;;;;;;;1.50;0.20;;;10.80;83.00;;;;;;4979609;28;20041;-68
2020/12/24 03:05:43;;;;;;;1.75;0.20;;;10.80;83.00;;;;;;4981370;28;20058;-69
2020/12/24 03:08:09;;;;;;;0.63;0.17;;;10.80;82.80;;;;;;4980819;28;20065;-69
2020/12/24 03:10:34;;;;;;;0.90;0.20;;;10.70;82.70;;;;;;4977393;28;20402;-68
2020/12/24 03:13:00;;;;;;;0.55;0.10;;;10.70;82.60;;;;;;4980351;28;20514;-68
2020/12/24 03:15:25;;;;;;;0.20;0.10;;;10.70;82.60;;;;;;4980154;28;20031;-68
2020/12/24 03:17:51;;;;;;;2.00;0.10;;;10.60;82.40;;;;;;4980354;28;20062;-69
2020/12/24 03:20:17;;;;;;;1.63;0.08;;;10.60;82.10;;;;;;4979161;28;20041;-69
2020/12/24 03:22:43;;;;;;;0.57;0.10;;;10.60;81.50;;;;;;4980270;28;20547;-70
2020/12/24 03:25:09;;;;;;;0.52;0.08;;;10.50;81.90;;;;;;4980159;28;20108;-68
2020/12/24 03:27:34;;;;;;;3.92;0.10;;;10.40;81.10;;;;;;4980132;28;20031;-69
2020/12/24 03:30:00;;;;;;;0.13;0.10;;;10.40;80.20;;;;;;4979216;28;20066;-69
2020/12/24 03:32:26;;;;;;;0.10;0.10;;;10.30;80.00;;;;;;4978663;28;20031;-69
2020/12/24 03:34:51;;;;;;;1.83;0.10;;;10.30;80.10;;;;;;4980811;28;20050;-68
2020/12/24 03:37:17;;;;;;;1.38;0.17;;;10.20;80.00;;;;;;4979624;28;20453;-69
2020/12/24 03:39:43;;;;;;;0.32;0.10;;;10.10;79.80;;;;;;4980328;28;20031;-69
2020/12/24 03:42:09;;;;;;;0.47;0.10;;;10.10;79.90;;;;;;4980077;28;20422;-69
2020/12/24 03:44:35;;;;;;;0.98;0.10;;;10.00;80.20;;;;;;4979609;28;20078;-67
2020/12/24 03:47:01;;;;;;;1.70;0.10;;;9.90;79.20;;;;;;4980510;28;20034;-69
2020/12/24 03:49:26;;;;;;;1.00;0.00;;;9.90;79.30;;;;;;4979560;28;20388;-69
2020/12/24 03:51:52;;;;;;;1.75;0.10;;;9.80;79.00;;;;;;4979974;28;20138;-68
2020/12/24 03:54:18;;;;;;;0.80;0.10;;;9.80;79.10;;;;;;4979941;28;20038;-69
2020/12/24 03:56:43;;;;;;;0.88;0.00;;;9.70;79.40;;;;;;4980518;28;20034;-68
2020/12/24 03:59:09;;;;;;;0.45;0.10;;;9.60;79.60;;;;;;4979678;28;20038;-68
2020/12/24 04:01:34;;;;;;;1.75;0.10;;;9.60;79.60;;;;;;4980264;28;20061;-68
2020/12/24 04:04:00;;;;;;;0.60;0.10;;;9.60;79.80;;;;;;4978953;28;20067;-69
2020/12/24 04:06:25;;;;;;;1.52;0.20;;;9.50;80.00;;;;;;4992983;28;20105;-69
2020/12/24 04:08:51;;;;;;;2.17;0.10;;;9.50;80.10;;;;;;4979215;28;20026;-68
2020/12/24 04:11:19;;;;;;;0.65;0.10;;;9.40;80.20;;;;;;4978066;28;20522;-68
2020/12/24 04:13:45;;;;;;;0.47;0.00;;;9.40;80.30;;;;;;4979896;28;20073;-68
2020/12/24 04:16:11;;;;;;;0.22;0.00;;;9.40;80.10;;;;;;4979596;28;20027;-69
2020/12/24 04:18:36;;;;;;;0.10;0.10;;;9.40;80.00;;;;;;4978686;28;20500;-68
2020/12/24 04:21:02;;;;;;;0.10;0.10;;;9.30;79.90;;;;;;4979386;28;20442;-68
2020/12/24 04:23:28;;;;;;;0.65;0.03;;;9.30;80.00;;;;;;4979694;28;20122;-68
2020/12/24 04:25:53;;;;;;;0.28;0.10;;;9.20;80.00;;;;;;4978548;28;20127;-68
2020/12/24 04:28:19;;;;;;;0.10;0.10;;;9.10;79.90;;;;;;4978234;28;20042;-68
2020/12/24 04:30:44;;;;;;;0.28;0.10;;;9.10;80.10;;;;;;4978635;28;20058;-68
2020/12/24 04:33:11;;;;;;;3.15;1.27;;;9.00;80.20;;;;;;4979921;28;20038;-68
2020/12/24 04:35:36;;;;;;;0.73;0.60;;;9.00;81.10;;;;;;4981203;28;20666;-68
2020/12/24 04:38:03;;;;;;;0.50;0.40;;;8.90;80.30;;;;;;4983235;28;20126;-68
2020/12/24 04:40:28;;;;;;;0.10;0.10;;;8.90;80.70;;;;;;4983146;28;20623;-68
2020/12/24 04:42:56;;;;;;;0.50;0.30;;;8.90;81.00;;;;;;4982885;28;20046;-68
2020/12/24 04:45:22;;;;;;;0.17;0.10;;;8.80;81.10;;;;;;4983160;28;20121;-68
2020/12/24 04:47:54;;;;;;;0.45;0.10;;;8.70;81.20;;;;;;4982941;28;20046;-69
2020/12/24 04:50:21;;;;;;;1.35;0.30;;;8.80;81.30;;;;;;4982593;28;20585;-69
2020/12/24 04:52:48;;;;;;;0.30;0.10;;;8.70;81.20;;;;;;4982685;28;20049;-68
2020/12/24 04:55:14;;;;;;;0.95;0.10;;;8.70;81.20;;;;;;4983081;28;20042;-68
2020/12/24 04:57:42;;;;;;;0.85;0.10;;;8.70;81.20;;;;;;4982351;28;20042;-68
2020/12/24 05:00:08;;;;;;;0.85;0.10;;;8.60;81.00;;;;;;4983211;28;20544;-68
2020/12/24 05:02:33;;;;;;;0.40;0.10;;;8.60;81.00;;;;;;4982948;28;20039;-68
2020/12/24 05:04:59;;;;;;;0.63;0.10;;;8.60;81.20;;;;;;4983546;28;20046;-68
2020/12/24 05:07:24;;;;;;;2.65;0.20;;;8.60;81.20;;;;;;4980978;28;20545;-68
2020/12/24 05:09:50;;;;;;;0.82;0.10;;;8.50;81.00;;;;;;4982427;28;20045;-68
2020/12/24 05:12:32;;;;;;;0.75;0.17;;;8.50;80.70;;;;;;4986066;28;20031;-68
2020/12/24 05:14:58;;;;;;;1.10;0.10;;;8.50;80.70;;;;;;4982394;28;20053;-68
2020/12/24 05:17:25;;;;;;;2.08;0.20;;;8.40;80.60;;;;;;4982708;28;20023;-68
2020/12/24 05:20:19;;;;;;;0.30;0.10;;;8.30;80.50;;;;;;4982530;28;20042;-68
2020/12/24 05:22:45;;;;;;;2.13;0.30;;;8.30;80.60;;;;;;4977947;28;20041;-68
2020/12/24 05:25:19;;;;;;;0.88;0.30;;;8.30;80.50;;;;;;4983166;28;20402;-68
2020/12/24 05:27:45;;;;;;;0.52;0.20;;;8.20;80.60;;;;;;4983273;28;20108;-68
2020/12/24 05:30:11;;;;;;;1.27;0.38;;;8.20;80.70;;;;;;4982313;28;20029;-68
2020/12/24 05:32:39;;;;;;;1.50;0.30;;;8.10;80.80;;;;;;4982265;28;20035;-68
2020/12/24 05:35:06;;;;;;;1.15;0.30;;;8.10;80.90;;;;;;4980428;28;20630;-68
2020/12/24 05:37:32;;;;;;;0.63;0.40;;;8.10;81.10;;;;;;4982201;28;20034;-68
2020/12/24 05:39:58;;;;;;;1.17;0.68;;;8.00;81.20;;;;;;4982812;28;20042;-68
2020/12/24 05:42:24;;;;;;;0.85;0.32;;;8.00;82.20;;;;;;4981285;28;20042;-68
2020/12/24 05:44:51;;;;;;;2.05;0.20;;;8.00;81.50;;;;;;4981911;28;20058;-68
2020/12/24 05:47:27;;;;;;;0.82;0.20;;;8.00;81.50;;;;;;4980821;28;20080;-68
2020/12/24 05:49:52;;;;;;;3.38;0.38;;;7.90;81.70;;;;;;4982189;28;20042;-68
2020/12/24 05:52:18;;;;;;;0.82;0.43;;;7.90;81.70;;;;;;4982349;28;20117;-68
2020/12/24 05:54:46;;;;;;;0.60;0.15;;;7.80;81.70;;;;;;4981185;28;20541;-68
2020/12/24 05:57:13;;;;;;;2.40;0.40;;;7.80;81.70;;;;;;4981869;28;20030;-67
2020/12/24 05:59:40;;;;;;;0.98;0.50;;;7.80;81.80;;;;;;4996451;28;20121;-68
2020/12/24 06:02:19;;;;;;;0.88;0.30;;;7.80;81.70;;;;;;4982544;28;20026;-68
2020/12/24 06:04:45;;;;;;;0.55;0.15;;;7.70;81.90;;;;;;4979930;28;20038;-68
2020/12/24 06:07:13;;;;;;;1.95;0.38;;;7.70;81.90;;;;;;4981563;28;20660;-67
2020/12/24 06:09:41;;;;;;;1.08;0.20;;;7.80;81.90;;;;;;4981858;28;20039;-68
2020/12/24 06:12:20;;;;;;;0.70;0.30;;;7.70;81.90;;;;;;4979935;28;20046;-68
2020/12/24 06:14:57;;;;;;;1.35;0.32;;;7.70;81.90;;;;;;4980629;28;20114;-67
2020/12/24 06:17:28;;;;;;;1.25;0.30;;;7.70;81.90;;;;;;4981364;28;20042;-67
2020/12/24 06:19:54;;;;;;;0.32;0.25;;;7.70;81.90;;;;;;4982157;28;20050;-67
2020/12/24 06:22:22;;;;;;;1.30;0.38;;;7.70;81.90;;;;;;4996099;28;20038;-67
2020/12/24 06:24:55;;;;;;;1.45;0.10;;;7.70;81.90;;;;;;4980873;28;20034;-68
2020/12/24 06:27:35;;;;;;;0.40;0.30;;;7.60;82.00;;;;;;4979754;28;20034;-68
2020/12/24 06:30:12;;;;;;;0.50;0.20;;;7.70;82.00;;;;;;4981639;28;20034;-68
2020/12/24 06:32:40;;;;;;;1.65;0.38;;;7.70;82.40;;;;;;4985685;28;20062;-67
2020/12/24 06:35:07;;;;;;;3.22;1.30;;;7.70;81.90;;;;;;4981915;28;20039;-67
2020/12/24 06:37:40;;;;;;;0.88;0.43;;;7.70;81.90;;;;;;4986137;28;20111;-68
2020/12/24 06:40:07;;;;;;;2.80;0.60;;;7.70;81.90;;;;;;4980550;28;20038;-68
2020/12/24 06:42:36;;;;;;;1.83;0.40;;;7.70;81.90;;;;;;4980201;28;20743;-67
2020/12/24 06:45:03;;;;;;;1.98;0.50;;;7.70;81.90;;;;;;4979462;28;20045;-68
2020/12/24 06:47:29;;;;;;;1.20;0.30;;;7.70;81.90;;;;;;4981045;28;20379;-68
2020/12/24 06:49:55;;;;;;;1.33;0.40;;;7.70;81.90;;;;;;4980369;28;20042;-68
2020/12/24 06:52:28;;;;;;;0.20;0.15;;;7.70;81.80;;;;;;4980862;28;20038;-69
2020/12/24 06:55:13;;;;;;;2.00;0.30;;;7.70;81.90;;;;;;4980467;28;20098;-68
2020/12/24 06:57:44;;;;;;;0.82;0.30;;;7.70;81.90;;;;;;4994746;28;20031;-68
2020/12/24 07:00:21;;;;;;;0.80;0.43;;;7.60;81.70;;;;;;4980511;28;20052;-68
2020/12/24 07:02:51;;;;;;;2.00;0.20;;;7.60;81.80;;;;;;4978508;28;20034;-67
2020/12/24 07:05:42;;;;;;;3.60;0.22;;;7.60;81.80;;;;;;4980519;28;21918;-68
2020/12/24 07:08:09;;;;;;;2.25;1.67;;;7.60;81.90;;;;;;4979071;28;20122;-68
2020/12/24 07:10:43;;;;;;;1.95;0.50;;;7.60;82.80;;;;;;4980116;28;20101;-68
2020/12/24 07:13:10;;;;;;;4.00;0.68;;;7.60;81.80;;;;;;4979574;28;20034;-67
2020/12/24 07:15:43;;;;;;;0.30;0.22;;;7.60;81.80;;;;;;4980107;28;20043;-67
2020/12/24 07:18:13;;;;;;;1.00;0.20;;;7.60;81.90;;;;;;4981131;28;20052;-68
2020/12/24 07:20:40;;;;;;;0.65;0.30;;;7.60;81.80;;;;;;4980245;28;20672;-68
2020/12/24 07:23:08;;;;;;;0.35;0.20;;;7.60;81.90;;;;;;4980649;28;20129;-68
2020/12/24 07:25:35;;;;;;;1.00;0.30;;;7.60;82.00;;;;;;4972035;28;20046;-68
2020/12/24 07:28:02;;;;;;;0.32;0.20;;;7.60;82.00;;;;;;4978767;28;20030;-67
2020/12/24 07:30:27;;;;;;;1.70;0.30;;;7.60;82.10;;;;;;4974139;28;20038;-69
2020/12/24 07:32:54;;;;;;;0.70;0.30;;;7.60;82.00;;;;;;4981275;28;20031;-69
2020/12/24 07:35:20;;;;;;;0.93;0.20;;;7.60;82.00;;;;;;4981730;28;20046;-69
2020/12/24 07:37:48;;;;;;;0.50;0.30;;;7.60;81.90;;;;;;4979769;28;20263;-68
2020/12/24 07:40:14;;;;;;;2.60;0.30;;;7.60;82.00;;;;;;4981692;28;20037;-68
2020/12/24 07:42:40;;;;;;;1.13;0.50;;;7.60;82.00;;;;;;4980338;28;20047;-68
2020/12/24 07:45:05;;;;;;;1.17;0.47;;;7.60;82.00;;;;;;4982968;28;20518;-69
2020/12/24 07:47:31;;;;;;;1.95;0.40;;;7.60;81.90;;;;;;4981995;28;20945;-68
2020/12/24 07:49:57;;;;;;;1.48;0.47;;;7.60;81.80;;;;;;4981365;28;20034;-68
2020/12/24 07:52:23;;;;;;;1.98;0.32;;;7.60;81.80;;;;;;4981805;28;20061;-67
2020/12/24 07:54:48;;;;;;;1.95;0.45;;;7.60;81.70;;;;;;4982613;28;20038;-68
2020/12/24 07:57:23;;;;;;;0.82;0.30;;;7.70;81.70;;;;;;4981700;28;20041;-69
2020/12/24 07:59:58;;;;;;;1.73;0.40;;;7.60;82.20;;;;;;4981964;28;20031;-66
2020/12/24 08:02:24;;;;;;;1.75;0.30;;;7.70;81.30;;;;;;4978608;28;20092;-67
2020/12/24 08:04:55;;;;;;;1.40;0.20;;;7.70;82.10;;;;;;4968135;28;20911;-68
2020/12/24 08:07:21;;;;;;;1.08;0.20;;;7.70;81.20;;;;;;4980016;28;20414;-66
2020/12/24 08:09:47;;;;;;;0.90;0.25;;;7.70;81.20;;;;;;4980312;28;20048;-69
2020/12/24 08:12:21;;;;;;;0.50;0.30;;;7.70;81.20;;;;;;4979082;28;20084;-68
2020/12/24 08:14:46;;;;;;;0.28;0.20;;;7.70;81.00;;;;;;4978304;28;20042;-68
2020/12/24 08:17:24;;;;;;;1.58;0.38;;;7.70;81.00;;;;;;4979987;28;20871;-68
2020/12/24 08:20:05;;;;;;;0.50;0.20;;;7.70;80.80;;;;;;4978392;28;20414;-68
2020/12/24 08:22:51;;;;;;;0.80;0.40;;;7.70;80.80;;;;;;4978430;28;20118;-68
2020/12/24 08:25:17;;;;;;;0.43;0.28;;;7.70;80.70;;;;;;4979888;28;20054;-69
2020/12/24 08:27:45;;;;;;;0.90;0.40;;;7.70;80.80;;;;;;4979697;28;20078;-68
2020/12/24 08:30:13;;;;;;;0.60;0.30;;;7.70;80.80;;;;;;4979444;28;20058;-68
2020/12/24 08:32:39;;;;;;;4.85;0.45;;;7.80;80.90;;;;;;4981294;28;20063;-68
2020/12/24 08:35:14;;;;;;;1.15;0.45;;;7.80;81.00;;;;;;4979935;28;20422;-68
2020/12/24 08:37:40;;;;;;;1.98;0.60;;;7.80;81.00;;;;;;4977028;28;20043;-68
2020/12/24 08:40:22;;;;;;;2.45;0.50;;;7.80;81.00;;;;;;4979587;28;20027;-68
2020/12/24 08:42:48;;;;;;;1.02;0.63;;;7.90;81.00;;;;;;4979485;28;20109;-68
2020/12/24 08:45:15;;;;;;;1.55;0.70;;;7.90;80.90;;;;;;4979573;28;20421;-69
2020/12/24 08:47:41;;;;;;;1.65;0.70;;;7.90;81.00;;;;;;4978210;28;20046;-68
2020/12/24 08:50:07;;;;;;;1.58;0.75;;;8.00;81.00;;;;;;4980074;28;20034;-68
2020/12/24 08:52:43;;;;;;;1.50;0.70;;;8.00;80.80;;;;;;4993677;28;20061;-69
2020/12/24 08:55:09;;;;;;;1.25;0.70;;;8.00;80.70;;;;;;4979039;28;20031;-67
2020/12/24 08:57:36;;;;;;;1.73;0.50;;;8.00;80.80;;;;;;4978683;28;20035;-68
2020/12/24 09:00:07;;;;;;;0.88;0.38;;;8.10;81.00;;;;;;4978081;28;20522;-68
2020/12/24 09:02:35;;;;;;;2.72;0.40;;;8.10;81.00;;;;;;4979857;28;20169;-69
2020/12/24 09:05:03;;;;;;;2.35;0.30;;;8.10;81.00;;;;;;4976962;28;20042;-68
2020/12/24 09:07:55;;;;;;;0.98;0.68;;;8.20;81.10;;;;;;4979555;28;20061;-69
2020/12/24 09:10:26;;;;;;;0.98;0.40;;;8.20;81.10;;;;;;4978131;28;20114;-68
2020/12/24 09:12:57;;;;;;;0.50;0.40;;;8.30;81.20;;;;;;4977385;28;20035;-68
2020/12/24 09:15:26;;;;;;;1.58;0.50;;;8.30;81.00;;;;;;4979011;28;20063;-69
2020/12/24 09:17:56;;;;;;;2.25;0.43;;;8.40;81.10;;;;;;4978898;28;20425;-68
2020/12/24 09:20:30;;;;;;;2.83;0.63;;;8.40;81.00;;;;;;4979409;28;20039;-69
2020/12/24 09:23:00;;;;;;;2.22;0.50;;;8.40;80.90;;;;;;4981070;28;20031;-68
2020/12/24 09:25:29;;;;;;;1.20;0.40;;;8.50;81.00;;;;;;4986372;28;20039;-68
2020/12/24 09:27:55;;;;;;;2.53;0.50;;;8.50;81.00;;;;;;4983463;28;20501;-68
2020/12/24 09:30:20;;;;;;;1.98;0.50;;;8.60;80.60;;;;;;4979418;28;20041;-68
2020/12/24 09:32:57;;;;;;;2.55;0.80;;;8.60;80.50;;;;;;4979675;28;20501;-68
2020/12/24 09:35:24;;;;;;;2.50;0.50;;;8.70;80.40;;;;;;4982071;28;20027;-69
2020/12/24 09:37:50;;;;;;;2.67;0.40;;;8.80;80.30;;;;;;4982631;28;20027;-68
2020/12/24 09:40:16;;;;;;;1.45;0.40;;;8.80;80.60;;;;;;4983051;28;20033;-68
2020/12/24 09:42:42;;;;;;;1.10;0.50;;;8.90;79.60;;;;;;4981657;28;20041;-69
2020/12/24 09:45:08;;;;;;;1.23;0.40;;;9.00;79.60;;;;;;4982414;28;20035;-69
2020/12/24 09:47:33;;;;;;;2.08;0.47;;;9.00;79.10;;;;;;4982249;28;20046;-69
2020/12/24 09:49:59;;;;;;;0.95;0.45;;;9.10;78.20;;;;;;4982627;28;20126;-69
2020/12/24 09:52:24;;;;;;;1.95;0.40;;;9.20;78.20;;;;;;4997153;28;20027;-70
2020/12/24 09:54:50;;;;;;;1.10;0.40;;;9.20;78.00;;;;;;4982340;28;20125;-69
2020/12/24 09:57:15;;;;;;;1.65;0.40;;;9.30;77.50;;;;;;4981704;28;20031;-69
2020/12/24 09:59:41;;;;;;;3.35;0.73;;;9.30;77.10;;;;;;4980100;28;20042;-69
2020/12/24 10:02:07;;;;;;;3.63;1.10;;;9.30;77.00;;;;;;4981545;28;20688;-68
2020/12/24 10:04:32;;;;;;;2.78;1.00;;;9.30;77.20;;;;;;4995082;28;20507;-69
2020/12/24 10:06:58;;;;;;;3.20;1.00;;;9.30;77.30;;;;;;4979963;28;20038;-69
2020/12/24 10:09:25;;;;;;;1.92;1.10;;;9.40;76.80;;;;;;4980509;28;20034;-69
2020/12/24 10:11:51;;;;;;;3.33;0.60;;;9.40;76.60;;;;;;4981883;28;20042;-70
2020/12/24 10:14:17;;;;;;;2.25;0.45;;;9.40;76.80;;;;;;4982505;28;20410;-69
2020/12/24 10:16:43;;;;;;;1.52;0.52;;;9.40;76.50;;;;;;4981665;28;20343;-69
2020/12/24 10:19:08;;;;;;;1.58;0.50;;;9.40;76.50;;;;;;4980277;28;20581;-70
2020/12/24 10:21:34;;;;;;;2.05;0.70;;;9.50;76.30;;;;;;4981353;28;20462;-70
2020/12/24 10:23:59;;;;;;;2.75;0.57;;;9.50;76.30;;;;;;4980888;28;20042;-69
2020/12/24 10:26:25;;;;;;;4.15;0.40;;;9.50;76.30;;;;;;4982158;28;20418;-68
2020/12/24 10:28:51;;;;;;;1.25;0.50;;;9.50;76.20;;;;;;4982415;28;20026;-69
2020/12/24 10:31:16;;;;;;;1.58;0.50;;;9.50;76.00;;;;;;4980660;28;20056;-70
2020/12/24 10:33:42;;;;;;;2.63;0.75;;;9.50;75.80;;;;;;4977229;28;20268;-69
2020/12/24 10:36:07;;;;;;;1.77;0.50;;;9.50;76.60;;;;;;4978105;28;20034;-70
2020/12/24 10:38:33;;;;;;;1.55;0.57;;;9.50;76.00;;;;;;4979448;28;20050;-69
2020/12/24 10:40:59;;;;;;;1.50;0.50;;;9.50;75.60;;;;;;4982157;28;20042;-70
2020/12/24 10:43:27;;;;;;;0.70;0.30;;;9.50;75.40;;;;;;4980795;28;20057;-69
2020/12/24 10:45:52;;;;;;;0.80;0.40;;;9.50;75.30;;;;;;4981258;28;20030;-70
2020/12/24 10:48:18;;;;;;;2.60;0.60;;;9.50;75.40;;;;;;4979931;28;20034;-69
2020/12/24 10:50:44;;;;;;;2.45;0.40;;;9.50;76.50;;;;;;4981870;28;20077;-68
2020/12/24 10:53:10;;;;;;;1.15;0.50;;;9.50;75.70;;;;;;4980339;28;20059;-68
2020/12/24 10:55:35;;;;;;;2.17;0.50;;;9.50;75.90;;;;;;4978495;23;20060;-70
2020/12/24 10:58:01;;;;;;;1.95;0.50;;;9.60;76.00;;;;;;4979878;28;20429;-70
2020/12/24 11:00:27;;;;;;;2.95;0.55;;;9.60;75.40;;;;;;4979304;28;20027;-70
2020/12/24 11:02:52;;;;;;;1.95;0.50;;;9.60;74.90;;;;;;4994843;28;20592;-70
2020/12/24 11:05:18;;;;;;;3.05;0.40;;;9.70;74.90;;;;;;4979031;28;20034;-71
2020/12/24 11:07:43;;;;;;;2.95;0.38;;;9.70;74.50;;;;;;4979306;28;20520;-69
2020/12/24 11:10:09;;;;;;;1.95;0.32;;;9.70;74.90;;;;;;4979468;28;20117;-70
2020/12/24 11:12:34;;;;;;;0.80;0.40;;;9.70;74.20;;;;;;4978992;28;20525;-69
2020/12/24 11:15:00;;;;;;;1.67;0.50;;;9.80;74.40;;;;;;4980059;28;20054;-69
2020/12/24 11:17:25;;;;;;;1.30;0.20;;;9.80;74.20;;;;;;4980034;28;20030;-69
2020/12/24 11:19:51;;;;;;;1.77;0.30;;;9.80;73.50;;;;;;4979353;28;20026;-70
2020/12/24 11:22:17;;;;;;;0.90;0.30;;;9.90;73.40;;;;;;4980576;28;20035;-70
2020/12/24 11:24:42;;;;;;;0.70;0.43;;;9.90;73.50;;;;;;4979442;28;20158;-68
2020/12/24 11:27:08;;;;;;;0.50;0.20;;;9.90;73.80;;;;;;4979325;28;20039;-70
2020/12/24 11:29:34;;;;;;;5.28;0.50;;;9.90;73.20;;;;;;4979201;28;20039;-69
2020/12/24 11:31:59;;;;;;;1.10;0.30;;;10.00;73.20;;;;;;4979494;28;20113;-70
2020/12/24 11:34:28;;;;;;;1.13;0.17;;;10.00;72.50;;;;;;4979311;28;20402;-70
2020/12/24 11:36:55;;;;;;;1.05;0.30;;;10.00;71.60;;;;;;4979153;28;20031;-69
2020/12/24 11:39:21;;;;;;;0.70;0.20;;;10.00;71.60;;;;;;4979016;28;20070;-69
2020/12/24 11:41:46;;;;;;;0.95;0.20;;;10.00;71.40;;;;;;4978898;28;20472;-69
2020/12/24 11:44:12;;;;;;;1.00;0.30;;;10.00;71.30;;;;;;4978945;28;20038;-69
2020/12/24 11:46:38;;;;;;;1.50;0.40;;;10.00;71.10;;;;;;4976668;28;20032;-70
2020/12/24 11:49:03;;;;;;;1.23;0.55;;;10.00;71.10;;;;;;4978416;28;20130;-70
2020/12/24 11:51:30;;;;;;;3.92;0.50;;;10.00;70.60;;;;;;4978161;28;20030;-70
2020/12/24 11:53:55;;;;;;;1.45;0.40;;;10.00;70.10;;;;;;4980279;28;20576;-70
2020/12/24 11:56:22;;;;;;;0.52;0.20;;;10.00;70.80;;;;;;4981077;28;20710;-70
2020/12/24 11:58:49;;;;;;;1.20;0.47;;;9.90;70.00;;;;;;4981507;28;20101;-70
2020/12/24 12:01:23;;;;;;;1.77;0.50;;;9.90;70.60;;;;;;4981346;28;20525;-69
2020/12/24 12:03:50;;;;;;;1.80;0.50;;;9.90;71.10;;;;;;4977204;28;20090;-71
2020/12/24 12:06:16;;;;;;;0.70;0.30;;;9.90;69.70;;;;;;4978037;28;20036;-69
2020/12/24 12:08:42;;;;;;;0.90;0.40;;;9.90;70.20;;;;;;4979969;28;20034;-70
2020/12/24 12:11:08;;;;;;;1.83;0.50;;;9.90;70.40;;;;;;4979676;28;20038;-69
2020/12/24 12:13:36;;;;;;;2.35;0.65;;;9.90;70.80;;;;;;4978483;28;20399;-71
2020/12/24 12:16:02;;;;;;;1.88;0.50;;;9.90;70.60;;;;;;4979353;28;20053;-69
2020/12/24 12:18:28;;;;;;;0.70;0.30;;;9.90;70.50;;;;;;4978955;28;20035;-69
2020/12/24 12:20:53;;;;;;;0.80;0.32;;;9.90;70.90;;;;;;4979638;28;20397;-70
2020/12/24 12:23:19;;;;;;;1.92;0.30;;;9.90;70.40;;;;;;4979229;28;20446;-69
2020/12/24 12:25:45;;;;;;;2.05;0.30;;;9.80;71.30;;;;;;4978948;28;20513;-70
2020/12/24 12:28:10;;;;;;;1.05;0.40;;;9.80;70.70;;;;;;4977615;28;20029;-70
2020/12/24 12:30:36;;;;;;;1.60;0.47;;;9.90;71.00;;;;;;4978041;28;20562;-70
2020/12/24 12:33:02;;;;;;;1.00;0.20;;;9.90;71.10;;;;;;4985395;28;20070;-70
2020/12/24 12:35:28;;;;;;;2.55;0.35;;;9.80;70.90;;;;;;4978483;28;20415;-71
2020/12/24 12:37:53;;;;;;;1.13;0.40;;;9.80;70.60;;;;;;4978218;28;20543;-70
2020/12/24 12:40:19;;;;;;;1.63;0.40;;;9.90;71.40;;;;;;4979225;28;20022;-70
2020/12/24 12:42:45;;;;;;;0.82;0.43;;;9.80;70.40;;;;;;4978398;28;20618;-70
2020/12/24 12:45:10;;;;;;;1.38;0.60;;;9.80;70.40;;;;;;4979129;28;20030;-70
2020/12/24 12:47:37;;;;;;;1.70;0.30;;;9.80;70.60;;;;;;4980580;28;20137;-71
2020/12/24 12:50:08;;;;;;;0.82;0.30;;;9.70;70.60;;;;;;4979335;28;20046;-70
2020/12/24 12:52:34;;;;;;;1.50;0.50;;;9.70;70.60;;;;;;4979049;28;20041;-70